createdAt,value
2022-08-12T00:02:02.783Z,2.50
2022-08-12T00:04:53.439Z,3.03
2022-08-12T00:10:28.773Z,2.90
2022-08-12T00:13:15.743Z,3.20
2022-08-12T00:16:04.280Z,3.17
2022-08-12T00:18:50.995Z,3.03
2022-08-12T00:21:39.562Z,3.38
2022-08-12T00:24:28.657Z,3.10
2022-08-12T00:27:17.217Z,2.80
2022-08-12T00:30:03.795Z,2.65
2022-08-12T00:32:54.926Z,3.00
2022-08-12T00:35:44.392Z,3.30
2022-08-12T00:38:31.996Z,3.20
2022-08-12T00:41:21.198Z,2.38
2022-08-12T00:43:56.129Z,2.92
2022-08-12T00:46:36.955Z,2.90
2022-08-12T00:49:08.271Z,2.75
2022-08-12T00:51:58.910Z,3.08
2022-08-12T00:54:28.624Z,3.35
2022-08-12T00:57:05.697Z,2.88
2022-08-12T00:59:38.829Z,2.65
2022-08-12T01:02:11.364Z,3.00
2022-08-12T01:05:02.242Z,3.00
2022-08-12T01:07:50.977Z,2.92
2022-08-12T01:10:37.456Z,2.63
2022-08-12T01:13:19.202Z,2.60
2022-08-12T01:15:54.507Z,3.22
2022-08-12T01:18:26.507Z,2.92
2022-08-12T01:21:12.065Z,3.38
2022-08-12T01:24:23.020Z,2.90
2022-08-12T01:26:55.598Z,2.95
2022-08-12T01:29:33.078Z,2.72
2022-08-12T01:32:08.849Z,3.03
2022-08-12T01:34:40.802Z,3.30
2022-08-12T01:37:11.548Z,3.20
2022-08-12T01:40:31.437Z,2.97
2022-08-12T01:42:47.003Z,3.15
2022-08-12T01:45:19.527Z,3.17
2022-08-12T01:48:12.998Z,3.53
2022-08-12T01:51:01.294Z,3.20
2022-08-12T01:53:50.283Z,3.42
2022-08-12T01:56:25.800Z,3.53
2022-08-12T01:59:26.191Z,2.92
2022-08-12T02:01:57.951Z,3.10
2022-08-12T02:04:57.820Z,3.28
2022-08-12T02:08:12.294Z,2.90
2022-08-12T02:11:11.204Z,3.40
2022-08-12T02:14:14.208Z,3.25
2022-08-12T02:17:09.381Z,3.22
2022-08-12T02:20:04.759Z,3.33
2022-08-12T02:22:39.282Z,3.17
2022-08-12T02:25:15.691Z,3.45
2022-08-12T02:27:48.386Z,3.10
2022-08-12T02:30:23.168Z,3.40
2022-08-12T02:32:55.205Z,3.58
2022-08-12T02:35:28.478Z,2.92
2022-08-12T02:38:02.072Z,3.30
2022-08-12T02:40:32.301Z,3.03
2022-08-12T02:43:06.910Z,3.13
2022-08-12T02:45:48.082Z,3.00
2022-08-12T02:48:21.040Z,2.88
2022-08-12T02:50:54.105Z,3.00
2022-08-12T02:53:24.176Z,2.80
2022-08-12T02:55:53.640Z,3.63
2022-08-12T02:58:32.945Z,3.88
2022-08-12T03:01:09.818Z,3.40
2022-08-12T03:03:41.729Z,3.22
2022-08-12T03:06:25.042Z,3.13
2022-08-12T03:08:59.075Z,3.05
2022-08-12T03:11:42.322Z,3.05
2022-08-12T03:14:17.619Z,3.03
2022-08-12T03:16:51.764Z,3.53
2022-08-12T03:19:22.493Z,3.03
2022-08-12T03:22:09.448Z,3.20
2022-08-12T03:24:42.509Z,3.47
2022-08-12T03:27:15.252Z,3.45
2022-08-12T03:29:51.631Z,3.10
2022-08-12T03:32:45.537Z,3.20
2022-08-12T03:35:40.622Z,3.05
2022-08-12T03:38:12.308Z,3.03
2022-08-12T03:41:14.501Z,2.78
2022-08-12T03:44:11.686Z,3.67
2022-08-12T03:47:00.693Z,3.33
2022-08-12T03:49:49.061Z,3.38
2022-08-12T03:52:37.438Z,3.53
2022-08-12T03:55:25.106Z,3.53
2022-08-12T03:58:11.684Z,3.15
2022-08-12T04:00:40.933Z,3.40
2022-08-12T04:03:24.800Z,3.85
2022-08-12T04:05:56.777Z,3.72
2022-08-12T04:08:27.689Z,3.17
2022-08-12T04:11:14.389Z,3.40
2022-08-12T04:13:45.482Z,3.83
2022-08-12T04:16:15.285Z,3.85
2022-08-12T04:18:46.150Z,3.65
2022-08-12T04:21:17.846Z,3.10
2022-08-12T04:23:48.770Z,3.60
2022-08-12T04:26:18.019Z,3.55
2022-08-12T04:28:47.331Z,3.50
2022-08-12T04:31:16.592Z,3.15
2022-08-12T04:33:45.905Z,3.33
2022-08-12T04:36:16.582Z,2.72
2022-08-12T04:38:48.007Z,3.30
2022-08-12T04:41:19.184Z,3.25
2022-08-12T04:43:59.853Z,3.20
2022-08-12T04:46:34.564Z,3.55
2022-08-12T04:49:05.202Z,4.25
2022-08-12T04:51:36.938Z,3.55
2022-08-12T04:54:06.950Z,4.30
2022-08-12T04:56:36.171Z,3.88
2022-08-12T04:59:06.221Z,4.55
2022-08-12T05:01:37.240Z,4.57
2022-08-12T05:04:09.387Z,4.47
2022-08-12T05:06:40.246Z,3.95
2022-08-12T05:09:13.136Z,3.80
2022-08-12T05:11:53.816Z,3.60
2022-08-12T05:14:24.148Z,3.80
2022-08-12T05:16:53.398Z,4.35
2022-08-12T05:19:22.914Z,3.40
2022-08-12T05:21:53.581Z,3.40
2022-08-12T05:24:22.833Z,3.55
2022-08-12T05:26:52.457Z,3.25
2022-08-12T05:30:07.387Z,3.40
2022-08-12T05:32:11.540Z,3.78
2022-08-12T05:34:40.754Z,3.22
2022-08-12T05:37:13.587Z,3.10
2022-08-12T05:39:43.125Z,3.15
2022-08-12T05:42:12.405Z,2.70
2022-08-12T05:44:41.801Z,3.17
2022-08-12T05:47:12.121Z,2.83
2022-08-12T05:49:42.117Z,2.70
2022-08-12T05:52:12.674Z,2.38
2022-08-12T05:54:57.156Z,2.10
2022-08-12T05:57:27.078Z,2.10
2022-08-12T05:59:56.289Z,1.52
2022-08-12T06:02:26.393Z,2.10
2022-08-12T06:04:57.752Z,1.90
2022-08-12T06:08:00.698Z,1.98
2022-08-12T06:10:31.446Z,1.83
2022-08-12T06:13:02.719Z,1.88
2022-08-12T06:15:33.511Z,2.30
2022-08-12T06:18:11.512Z,2.30
2022-08-12T06:20:43.593Z,2.10
2022-08-12T06:23:18.347Z,2.13
2022-08-12T06:25:49.990Z,2.20
2022-08-12T06:28:20.326Z,2.08
2022-08-12T06:31:14.783Z,2.20
2022-08-12T06:33:55.452Z,1.85
2022-08-12T06:36:33.452Z,1.77
2022-08-12T06:39:04.452Z,2.17
2022-08-12T06:42:42.036Z,2.20
2022-08-12T06:44:51.580Z,1.80
2022-08-12T06:47:22.149Z,2.10
2022-08-12T06:49:52.640Z,2.10
2022-08-12T06:52:25.162Z,2.00
2022-08-12T06:54:55.859Z,2.13
2022-08-12T06:58:06.399Z,2.40
2022-08-12T07:00:21.907Z,2.08
2022-08-12T07:02:59.094Z,2.20
2022-08-12T07:05:45.888Z,2.13
2022-08-12T07:08:17.089Z,2.03
2022-08-12T07:10:59.107Z,2.03
2022-08-12T07:13:35.209Z,2.00
2022-08-12T07:16:04.739Z,2.20
2022-08-12T07:18:34.879Z,2.20
2022-08-12T07:21:06.342Z,2.05
2022-08-12T07:23:37.969Z,1.80
2022-08-12T07:26:16.123Z,2.00
2022-08-12T07:28:50.738Z,2.22
2022-08-12T07:31:19.897Z,1.70
2022-08-12T07:33:50.275Z,2.63
2022-08-12T07:36:22.683Z,2.17
2022-08-12T07:38:52.599Z,1.85
2022-08-12T07:41:28.073Z,1.95
2022-08-12T07:44:04.554Z,1.90
2022-08-12T07:46:37.349Z,1.80
2022-08-12T07:49:10.478Z,2.25
2022-08-12T07:51:40.468Z,2.00
2022-08-12T07:54:11.748Z,1.88
2022-08-12T07:56:44.167Z,1.98
2022-08-12T07:59:13.539Z,1.65
2022-08-12T08:01:43.376Z,1.90
2022-08-12T08:04:30.033Z,2.00
2022-08-12T08:07:00.438Z,1.85
2022-08-12T08:09:30.063Z,1.50
2022-08-12T08:12:23.599Z,1.70
2022-08-12T08:14:56.274Z,1.88
2022-08-12T08:17:25.896Z,2.00
2022-08-12T08:21:36.040Z,1.80
2022-08-12T08:24:18.391Z,1.80
2022-08-12T08:27:12.993Z,1.80
2022-08-12T08:30:11.529Z,1.80
2022-08-12T08:32:50.745Z,1.83
2022-08-12T08:35:54.621Z,1.70
2022-08-12T08:38:59.035Z,1.73
2022-08-12T08:42:17.517Z,1.92
2022-08-12T08:44:39.588Z,2.53
2022-08-12T08:47:11.481Z,2.40
2022-08-12T08:49:43.041Z,1.67
2022-08-12T08:52:12.939Z,1.73
2022-08-12T08:55:02.116Z,1.75
2022-08-12T08:57:43.084Z,2.58
2022-08-12T09:00:21.955Z,1.80
2022-08-12T09:02:59.485Z,1.50
2022-08-12T09:05:43.164Z,1.80
2022-08-12T09:08:26.825Z,1.83
2022-08-12T09:12:06.985Z,1.77
2022-08-12T09:14:10.453Z,1.67
2022-08-12T09:16:43.157Z,1.80
2022-08-12T09:19:27.542Z,1.70
2022-08-12T09:22:00.268Z,1.70
2022-08-12T09:24:30.878Z,1.63
2022-08-12T09:27:01.290Z,1.85
2022-08-12T09:30:10.896Z,1.80
2022-08-12T09:32:29.569Z,1.90
2022-08-12T09:35:18.600Z,1.90
2022-08-12T09:38:01.116Z,1.80
2022-08-12T09:41:02.474Z,1.60
2022-08-12T09:43:46.889Z,1.60
2022-08-12T09:46:25.292Z,2.00
2022-08-12T09:48:57.458Z,1.80
2022-08-12T09:51:37.553Z,2.08
2022-08-12T09:54:33.839Z,1.80
2022-08-12T09:58:45.291Z,2.05
2022-08-12T10:00:16.974Z,1.50
2022-08-12T10:03:32.068Z,1.63
2022-08-12T10:06:26.509Z,1.65
2022-08-12T10:08:58.557Z,1.70
2022-08-12T10:12:12.288Z,2.20
2022-08-12T10:14:35.388Z,1.70
2022-08-12T10:17:12.533Z,1.52
2022-08-12T10:19:41.932Z,1.65
2022-08-12T10:22:40.522Z,1.95
2022-08-12T10:26:18.219Z,1.60
2022-08-12T10:28:39.120Z,1.63
2022-08-12T10:31:16.660Z,1.35
2022-08-12T10:33:54.882Z,1.77
2022-08-12T10:36:36.135Z,1.90
2022-08-12T10:40:01.910Z,2.00
2022-08-12T10:42:28.960Z,1.42
2022-08-12T10:45:03.879Z,2.00
2022-08-12T10:48:07.834Z,1.45
2022-08-12T10:50:35.462Z,1.60
2022-08-12T10:53:20.502Z,1.50
2022-08-12T10:56:11.702Z,1.83
2022-08-12T10:58:46.291Z,1.90
2022-08-12T11:01:50.213Z,1.60
2022-08-12T11:04:22.643Z,1.73
2022-08-12T11:07:09.658Z,1.67
2022-08-12T11:10:00.997Z,1.92
2022-08-12T11:12:56.299Z,1.60
2022-08-12T11:15:24.621Z,1.98
2022-08-12T11:18:18.719Z,1.73
2022-08-12T11:20:49.834Z,1.88
2022-08-12T11:23:26.083Z,1.50
2022-08-12T11:26:08.338Z,1.77
2022-08-12T11:28:39.631Z,1.98
2022-08-12T11:31:14.276Z,1.75
2022-08-12T11:34:06.373Z,1.98
2022-08-12T11:36:39.391Z,1.60
2022-08-12T11:39:12.378Z,1.63
2022-08-12T11:41:43.047Z,1.90
2022-08-12T11:44:35.608Z,2.05
2022-08-12T11:47:03.211Z,1.52
2022-08-12T11:49:38.843Z,1.70
2022-08-12T11:52:17.539Z,1.80
2022-08-12T11:54:58.330Z,1.65
2022-08-12T11:58:19.813Z,1.95
2022-08-12T12:03:10.480Z,1.85
2022-08-12T12:05:45.668Z,1.80
2022-08-12T12:08:38.489Z,1.83
2022-08-12T12:11:13.868Z,1.48
2022-08-12T12:14:08.432Z,2.10
2022-08-12T12:16:38.243Z,2.00
2022-08-12T12:19:10.156Z,1.65
2022-08-12T12:21:47.202Z,1.73
2022-08-12T12:24:21.364Z,1.60
2022-08-12T12:26:59.595Z,1.85
2022-08-12T12:30:19.313Z,1.80
2022-08-12T12:32:28.921Z,2.00
2022-08-12T12:35:17.915Z,1.60
2022-08-12T12:38:04.312Z,1.55
2022-08-12T12:40:43.746Z,1.80
2022-08-12T12:43:13.819Z,1.83
2022-08-12T12:45:46.560Z,1.55
2022-08-12T12:48:19.179Z,1.60
2022-08-12T12:51:12.165Z,1.60
2022-08-12T12:54:07.035Z,1.80
2022-08-12T12:56:34.642Z,1.70
2022-08-12T12:59:06.181Z,1.70
2022-08-12T13:01:41.974Z,1.85
2022-08-12T13:04:14.499Z,1.95
2022-08-12T13:06:43.849Z,1.83
2022-08-12T13:09:13.593Z,1.55
2022-08-12T13:11:44.720Z,1.70
2022-08-12T13:14:28.304Z,1.83
2022-08-12T13:17:02.456Z,1.80
2022-08-12T13:19:45.176Z,1.70
2022-08-12T13:22:20.072Z,1.63
2022-08-12T13:24:56.314Z,1.58
2022-08-12T13:27:35.359Z,2.05
2022-08-12T13:30:11.335Z,1.70
2022-08-12T13:32:56.836Z,1.63
2022-08-12T13:36:02.644Z,1.60
2022-08-12T13:38:26.597Z,1.73
2022-08-12T13:41:11.660Z,2.00
2022-08-12T13:43:41.996Z,1.67
2022-08-12T13:46:14.928Z,1.63
2022-08-12T13:48:45.177Z,1.60
2022-08-12T13:51:24.293Z,1.42
2022-08-12T13:53:59.505Z,1.90
2022-08-12T13:56:35.246Z,1.90
2022-08-12T13:59:08.968Z,1.77
2022-08-12T14:01:40.250Z,1.70
2022-08-12T14:04:11.888Z,1.60
2022-08-12T14:06:44.860Z,2.00
2022-08-12T14:09:18.309Z,1.80
2022-08-12T14:11:58.773Z,1.60
2022-08-12T14:14:31.671Z,1.60
2022-08-12T14:17:09.893Z,1.88
2022-08-12T14:20:00.972Z,1.80
2022-08-12T14:22:33.997Z,1.80
2022-08-12T14:25:03.525Z,1.63
2022-08-12T14:28:03.274Z,1.60
2022-08-12T14:30:28.879Z,1.52
2022-08-12T14:33:03.247Z,1.88
2022-08-12T14:35:40.998Z,1.77
2022-08-12T14:38:25.439Z,1.88
2022-08-12T14:40:59.468Z,1.92
2022-08-12T14:43:44.299Z,1.55
2022-08-12T14:46:27.923Z,1.60
2022-08-12T14:48:57.357Z,1.60
2022-08-12T14:52:57.663Z,1.73
2022-08-12T14:57:20.394Z,1.73
2022-08-12T15:00:17.864Z,1.65
2022-08-12T15:02:50.899Z,1.50
2022-08-12T15:06:04.847Z,1.83
2022-08-12T15:08:12.602Z,1.73
2022-08-12T15:10:53.859Z,1.80
2022-08-12T15:13:25.133Z,1.77
2022-08-12T15:15:56.472Z,1.77
2022-08-12T15:18:26.461Z,1.90
2022-08-12T15:21:02.309Z,1.75
2022-08-12T15:23:55.028Z,2.00
2022-08-12T15:26:40.807Z,1.73
2022-08-12T15:29:10.453Z,1.63
2022-08-12T15:32:01.957Z,1.70
2022-08-12T15:34:30.793Z,1.40
2022-08-12T15:37:01.171Z,1.90
2022-08-12T15:39:30.696Z,1.70
2022-08-12T15:42:05.682Z,1.60
2022-08-12T15:44:38.109Z,1.88
2022-08-12T15:47:12.005Z,2.05
2022-08-12T15:50:00.158Z,1.77
2022-08-12T15:52:31.416Z,1.60
2022-08-12T15:55:05.931Z,1.80
2022-08-12T15:57:53.103Z,1.98
2022-08-12T16:00:33.071Z,1.90
2022-08-12T16:03:13.318Z,1.98
2022-08-12T16:06:19.086Z,2.10
2022-08-12T16:08:42.476Z,2.20
2022-08-12T16:11:15.679Z,1.80
2022-08-12T16:13:52.238Z,2.22
2022-08-12T16:16:23.596Z,2.05
2022-08-12T16:18:59.466Z,2.00
2022-08-12T16:21:51.291Z,1.67
2022-08-12T16:24:22.553Z,1.85
2022-08-12T16:26:54.298Z,2.20
2022-08-12T16:29:52.954Z,2.13
2022-08-12T16:32:31.406Z,1.50
2022-08-12T16:35:01.889Z,2.05
2022-08-12T16:38:24.335Z,2.17
2022-08-12T16:40:23.917Z,1.90
2022-08-12T16:43:01.657Z,2.20
2022-08-12T16:46:05.481Z,2.08
2022-08-12T16:48:35.535Z,1.83
2022-08-12T16:51:09.360Z,1.90
2022-08-12T16:53:44.605Z,2.55
2022-08-12T16:56:17.319Z,2.50
2022-08-12T16:58:48.325Z,2.20
2022-08-12T17:01:19.751Z,2.15
2022-08-12T17:04:08.576Z,1.70
2022-08-12T17:06:41.621Z,2.38
2022-08-12T17:09:17.022Z,2.20
2022-08-12T17:11:49.949Z,2.60
2022-08-12T17:14:23.392Z,2.30
2022-08-12T17:16:57.080Z,1.85
2022-08-12T17:20:30.531Z,2.03
2022-08-12T17:22:21.441Z,2.28
2022-08-12T17:24:55.397Z,2.45
2022-08-12T17:27:30.807Z,2.10
2022-08-12T17:30:04.518Z,2.33
2022-08-12T17:32:39.867Z,2.70
2022-08-12T17:35:37.567Z,1.90
2022-08-12T17:38:14.019Z,2.17
2022-08-12T17:40:47.705Z,2.50
2022-08-12T17:43:55.734Z,2.17
2022-08-12T17:46:12.512Z,2.33
2022-08-12T17:48:54.812Z,2.33
2022-08-12T17:51:26.082Z,2.50
2022-08-12T17:54:11.157Z,2.30
2022-08-12T17:56:43.952Z,2.80
2022-08-12T17:59:47.322Z,2.38
2022-08-12T18:02:13.528Z,2.38
2022-08-12T18:05:04.882Z,2.63
2022-08-12T18:07:37.180Z,2.40
2022-08-12T18:10:10.796Z,2.60
2022-08-12T18:12:42.835Z,2.53
2022-08-12T18:15:26.995Z,2.63
2022-08-12T18:18:16.846Z,2.47
2022-08-12T18:20:50.157Z,2.60
2022-08-12T18:23:24.347Z,2.33
2022-08-12T18:26:17.474Z,2.72
2022-08-12T18:28:48.600Z,2.33
2022-08-12T18:31:23.371Z,2.60
2022-08-12T18:33:53.743Z,2.40
2022-08-12T18:36:25.711Z,2.80
2022-08-12T18:38:59.455Z,2.60
2022-08-12T18:41:32.022Z,2.95
2022-08-12T18:44:09.292Z,2.88
2022-08-12T18:47:02.319Z,2.80
2022-08-12T18:49:39.377Z,3.00
2022-08-12T18:54:49.136Z,3.05
2022-08-12T18:58:00.450Z,2.90
2022-08-12T19:00:21.346Z,3.35
2022-08-12T19:02:53.881Z,3.33
2022-08-12T19:05:45.770Z,3.38
2022-08-12T19:08:17.335Z,3.00
2022-08-12T19:10:50.173Z,3.33
2022-08-12T19:13:39.394Z,3.38
2022-08-12T19:16:11.615Z,3.00
2022-08-12T19:18:44.879Z,3.38
2022-08-12T19:21:20.100Z,3.28
2022-08-12T19:24:13.584Z,3.33
2022-08-12T19:26:43.966Z,2.90
2022-08-12T19:29:18.259Z,3.47
2022-08-12T19:31:57.842Z,3.08
2022-08-12T19:37:27.408Z,3.00
2022-08-12T19:40:09.920Z,2.75
2022-08-12T19:42:57.509Z,3.20
2022-08-12T19:45:41.796Z,3.15
2022-08-12T19:48:17.510Z,3.00
2022-08-12T19:50:52.713Z,3.30
2022-08-12T19:53:24.855Z,3.42
2022-08-12T19:55:58.671Z,3.00
2022-08-12T19:58:28.043Z,3.13
2022-08-12T20:00:58.220Z,3.10
2022-08-12T20:03:38.007Z,3.50
2022-08-12T20:06:15.927Z,3.90
2022-08-12T20:08:56.582Z,3.42
2022-08-12T20:12:12.351Z,3.40
2022-08-12T20:14:20.973Z,3.58
2022-08-12T20:16:57.263Z,3.50
2022-08-12T20:20:01.426Z,3.30
2022-08-12T20:22:31.552Z,3.20
2022-08-12T20:25:07.388Z,3.35
2022-08-12T20:28:02.667Z,3.20
2022-08-12T20:30:37.895Z,3.50
2022-08-12T20:33:32.790Z,3.45
2022-08-12T20:36:43.014Z,3.83
2022-08-12T20:39:33.986Z,3.85
2022-08-12T20:42:02.447Z,4.03
2022-08-12T20:44:38.869Z,4.35
2022-08-12T20:47:19.939Z,4.20
2022-08-12T20:49:55.939Z,4.55
2022-08-12T20:52:34.077Z,4.38
2022-08-12T20:55:06.073Z,4.00
2022-08-12T20:58:02.241Z,4.47
2022-08-12T21:00:36.169Z,4.00
2022-08-12T21:03:19.559Z,3.50
2022-08-12T21:06:13.890Z,3.60
2022-08-12T21:08:44.283Z,3.70
2022-08-12T21:11:13.824Z,3.78
2022-08-12T21:13:45.356Z,3.90
2022-08-12T21:16:35.367Z,3.40
2022-08-12T21:19:11.890Z,3.67
2022-08-12T21:21:54.669Z,4.03
2022-08-12T21:24:32.358Z,3.67
2022-08-12T21:27:07.458Z,4.20
2022-08-12T21:29:49.958Z,4.13
2022-08-12T21:32:39.795Z,3.92
2022-08-12T21:35:19.426Z,3.40
2022-08-12T21:37:52.918Z,3.92
2022-08-12T21:40:32.365Z,3.80
2022-08-12T21:43:07.715Z,3.95
2022-08-12T21:45:46.568Z,3.97
2022-08-12T21:48:29.518Z,3.85
2022-08-12T21:50:59.463Z,3.65
2022-08-12T21:53:31.690Z,3.22
2022-08-12T21:56:34.926Z,3.92
2022-08-12T21:59:13.571Z,3.92
2022-08-12T22:01:48.598Z,3.80
2022-08-12T22:04:37.720Z,3.72
2022-08-12T22:07:07.879Z,3.70
2022-08-12T22:09:42.825Z,3.65
2022-08-12T22:12:31.719Z,3.85
2022-08-12T22:15:02.535Z,4.07
2022-08-12T22:17:50.541Z,3.75
2022-08-12T22:20:29.610Z,3.92
2022-08-12T22:23:02.513Z,3.88
2022-08-12T22:25:32.051Z,3.92
2022-08-12T22:28:24.809Z,3.67
2022-08-12T22:31:15.465Z,3.50
2022-08-12T22:33:54.287Z,3.50
2022-08-12T22:36:29.284Z,3.65
2022-08-12T22:39:03.470Z,3.80
2022-08-12T22:41:56.969Z,3.60
2022-08-12T22:44:52.598Z,3.60
2022-08-12T22:47:53.383Z,3.65
2022-08-12T22:50:29.684Z,3.65
2022-08-12T22:53:20.314Z,3.28
2022-08-12T22:56:05.804Z,3.58
2022-08-12T22:58:40.564Z,3.60
2022-08-12T23:01:21.289Z,4.05
2022-08-12T23:04:02.964Z,3.53
2022-08-12T23:06:32.317Z,3.50
2022-08-12T23:09:02.936Z,3.83
2022-08-12T23:11:36.152Z,4.03
2022-08-12T23:14:10.434Z,3.60
2022-08-12T23:16:41.407Z,3.40
2022-08-12T23:19:22.911Z,3.58
2022-08-12T23:22:06.421Z,3.40
2022-08-12T23:24:55.947Z,3.13
2022-08-12T23:27:51.025Z,3.30
2022-08-12T23:30:32.379Z,3.67
2022-08-12T23:33:20.166Z,3.80
2022-08-12T23:36:02.561Z,3.55
2022-08-12T23:38:34.549Z,3.22
2022-08-12T23:41:06.777Z,3.45
2022-08-12T23:43:39.777Z,3.33
2022-08-12T23:46:11.700Z,3.33
2022-08-12T23:48:47.751Z,4.20
2022-08-12T23:51:24.628Z,3.20
2022-08-12T23:54:02.626Z,3.58
2022-08-12T23:56:33.976Z,3.45
2022-08-12T23:59:06.696Z,3.42
